Time;durP1;ratioP1;P1;durP2;ratioP2;P2;SDS_P1;SDS_P2;PMS_P1;PMS_P2;Temp;Humidity;BMP_temperature;BMP_pressure;BME280_temperature;BME280_humidity;BME280_pressure;Samples;Min_cycle;Max_cycle;Signal;HPM_P1;HPM_P2
2021/05/05 00:01:11;;;;;;;5.10;2.40;;;8.60;97.30;;;;;;4919998;29;20734;-85
2021/05/05 00:03:36;;;;;;;7.10;2.27;;;8.60;97.30;;;;;;4921339;29;20207;-85
2021/05/05 00:06:03;;;;;;;3.83;2.40;;;8.60;97.30;;;;;;4921495;29;20188;-85
2021/05/05 00:08:28;;;;;;;2.33;2.07;;;8.60;97.30;;;;;;4943476;28;20191;-89
2021/05/05 00:10:54;;;;;;;3.60;1.70;;;8.70;97.30;;;;;;4979307;28;20442;-86
2021/05/05 00:13:20;;;;;;;3.03;2.00;;;8.60;97.30;;;;;;4940582;29;20187;-85
2021/05/05 00:15:46;;;;;;;3.10;2.00;;;8.60;97.30;;;;;;4958182;29;20668;-85
2021/05/05 00:18:12;;;;;;;3.77;2.00;;;8.60;97.30;;;;;;4940496;29;20203;-85
2021/05/05 00:20:37;;;;;;;2.30;1.77;;;8.50;97.30;;;;;;4939750;29;20800;-86
2021/05/05 00:23:03;;;;;;;2.43;1.93;;;8.50;97.30;;;;;;4940062;29;20186;-85
2021/05/05 00:25:29;;;;;;;3.57;1.90;;;8.50;97.30;;;;;;4939847;29;20191;-85
2021/05/05 00:27:56;;;;;;;3.40;2.10;;;8.50;97.30;;;;;;4939321;29;20205;-85
2021/05/05 00:30:23;;;;;;;3.53;2.13;;;8.50;97.30;;;;;;4956759;29;20450;-85
2021/05/05 00:32:49;;;;;;;7.77;3.00;;;8.40;97.30;;;;;;4938957;29;20454;-85
2021/05/05 00:35:15;;;;;;;5.30;2.37;;;8.50;97.30;;;;;;4955588;29;20465;-85
2021/05/05 00:37:41;;;;;;;4.47;2.33;;;8.50;97.30;;;;;;4938689;29;20443;-86
2021/05/05 00:40:09;;;;;;;3.40;2.53;;;8.40;97.30;;;;;;4938657;29;20429;-85
2021/05/05 00:42:34;;;;;;;3.60;2.13;;;8.40;97.30;;;;;;4938361;29;20257;-85
2021/05/05 00:45:03;;;;;;;5.40;2.17;;;8.40;97.30;;;;;;4938317;29;20433;-86
2021/05/05 00:47:29;;;;;;;4.20;2.03;;;8.40;97.30;;;;;;4955388;29;20195;-86
2021/05/05 00:49:56;;;;;;;4.40;2.30;;;8.40;97.30;;;;;;4938610;29;20422;-85
2021/05/05 00:52:22;;;;;;;2.90;2.37;;;8.40;97.30;;;;;;4938057;29;20945;-87
2021/05/05 00:54:47;;;;;;;8.00;2.50;;;8.30;97.30;;;;;;4938074;29;20614;-85
2021/05/05 00:57:14;;;;;;;3.57;2.40;;;8.30;97.30;;;;;;4938142;29;20549;-85
2021/05/05 00:59:40;;;;;;;2.93;2.33;;;8.30;97.30;;;;;;4955224;29;20185;-85
2021/05/05 01:02:05;;;;;;;3.50;2.20;;;8.30;97.30;;;;;;4937139;29;20517;-85
2021/05/05 01:04:31;;;;;;;5.80;2.43;;;8.20;97.30;;;;;;4937013;29;20546;-87
2021/05/05 01:06:57;;;;;;;4.97;2.40;;;8.20;97.30;;;;;;4954285;29;20183;-86
2021/05/05 01:09:23;;;;;;;7.40;3.60;;;8.20;97.30;;;;;;4936677;29;20230;-85
2021/05/05 01:11:49;;;;;;;5.23;1.90;;;8.20;97.30;;;;;;4937259;29;20275;-85
2021/05/05 01:14:16;;;;;;;3.47;2.07;;;8.30;97.30;;;;;;4936905;29;20553;-86
2021/05/05 01:16:41;;;;;;;7.73;2.40;;;8.20;97.30;;;;;;4937443;29;20175;-85
2021/05/05 01:19:07;;;;;;;3.30;1.90;;;8.20;97.30;;;;;;4936820;29;20439;-86
2021/05/05 01:21:33;;;;;;;4.43;2.07;;;8.20;97.30;;;;;;4936774;29;20222;-85
2021/05/05 01:23:58;;;;;;;6.13;2.60;;;8.20;97.30;;;;;;4937679;29;20183;-85
2021/05/05 01:26:24;;;;;;;5.27;2.60;;;8.10;97.30;;;;;;4954837;29;20538;-85
2021/05/05 01:28:49;;;;;;;5.47;2.53;;;8.10;97.30;;;;;;4937593;29;20198;-85
2021/05/05 01:31:16;;;;;;;5.47;2.53;;;8.10;97.30;;;;;;4937826;29;20186;-85
2021/05/05 01:33:42;;;;;;;6.37;2.23;;;8.10;97.30;;;;;;4937396;29;20653;-86
2021/05/05 01:36:12;;;;;;;3.80;2.47;;;8.10;97.30;;;;;;4937898;29;20976;-85
2021/05/05 01:38:37;;;;;;;4.17;2.13;;;8.10;97.30;;;;;;4938408;29;20958;-87
2021/05/05 01:41:04;;;;;;;5.70;2.57;;;8.20;97.30;;;;;;4938490;29;20423;-85
2021/05/05 01:43:30;;;;;;;4.10;2.07;;;8.10;97.30;;;;;;4955907;29;20266;-85
2021/05/05 01:45:56;;;;;;;6.30;2.57;;;8.10;97.30;;;;;;4956783;29;20975;-85
2021/05/05 01:48:22;;;;;;;7.13;2.20;;;8.10;97.30;;;;;;4939075;29;20454;-85
2021/05/05 01:50:47;;;;;;;3.10;2.40;;;8.00;97.30;;;;;;4956457;29;20438;-85
2021/05/05 01:53:15;;;;;;;3.77;2.30;;;8.00;97.30;;;;;;4956510;29;20246;-85
2021/05/05 01:55:41;;;;;;;5.23;2.20;;;7.90;97.30;;;;;;4939242;29;20202;-85
2021/05/05 01:58:07;;;;;;;3.20;2.27;;;7.90;97.30;;;;;;4938589;29;20467;-85
2021/05/05 02:00:33;;;;;;;3.50;2.07;;;7.80;97.30;;;;;;4939495;29;20415;-86
2021/05/05 02:02:58;;;;;;;4.40;2.53;;;7.80;97.30;;;;;;4939169;29;20186;-86
2021/05/05 02:05:24;;;;;;;5.47;3.23;;;7.70;97.30;;;;;;4939232;29;20187;-86
2021/05/05 02:07:49;;;;;;;6.93;2.40;;;7.70;97.30;;;;;;4938666;29;20299;-86
2021/05/05 02:10:18;;;;;;;11.20;2.87;;;7.60;97.30;;;;;;4937856;29;20210;-85
2021/05/05 02:13:06;;;;;;;6.10;2.40;;;7.60;97.30;;;;;;4937961;29;20592;-85
2021/05/05 02:15:32;;;;;;;6.37;2.40;;;7.60;97.30;;;;;;4939144;28;21032;-86
2021/05/05 02:26:01;;;;;;;7.10;2.40;;;7.40;97.30;;;;;;4953377;29;20490;-87
2021/05/05 02:41:16;;;;;;;6.90;2.47;;;7.20;97.30;;;;;;4952641;29;20479;-86
2021/05/05 02:43:41;;;;;;;7.47;3.10;;;7.10;97.30;;;;;;4936721;29;20427;-88
2021/05/05 02:46:07;;;;;;;7.17;3.00;;;7.10;97.30;;;;;;4937667;29;20551;-86
2021/05/05 02:48:33;;;;;;;12.53;3.23;;;7.10;97.30;;;;;;4940104;29;20570;-85
2021/05/05 02:50:58;;;;;;;6.63;2.63;;;7.00;97.30;;;;;;4956044;29;20209;-85
2021/05/05 02:53:24;;;;;;;9.00;2.70;;;7.00;97.30;;;;;;4940087;29;20411;-86
2021/05/05 02:55:49;;;;;;;6.10;2.73;;;7.00;97.30;;;;;;4957374;29;20595;-85
2021/05/05 02:58:15;;;;;;;5.87;2.87;;;7.00;97.30;;;;;;4940176;29;20230;-85
2021/05/05 03:00:40;;;;;;;4.50;2.50;;;7.00;97.30;;;;;;4940249;29;20195;-87
2021/05/05 03:03:06;;;;;;;5.00;2.80;;;7.00;97.30;;;;;;4956138;29;20178;-88
2021/05/05 03:05:31;;;;;;;3.80;2.87;;;7.00;97.30;;;;;;4940133;29;20187;-87
2021/05/05 03:07:57;;;;;;;5.10;2.87;;;7.00;97.30;;;;;;4955856;28;20195;-87
2021/05/05 03:10:23;;;;;;;6.20;3.37;;;6.90;97.30;;;;;;4940095;29;20190;-87
2021/05/05 03:12:48;;;;;;;4.00;2.50;;;6.90;97.30;;;;;;4940461;29;20643;-87
2021/05/05 03:15:14;;;;;;;7.40;3.77;;;6.90;97.30;;;;;;4940512;29;20222;-87
2021/05/05 03:17:40;;;;;;;7.87;2.90;;;6.90;97.30;;;;;;4941140;29;20199;-87
2021/05/05 03:20:11;;;;;;;5.70;3.23;;;6.90;97.30;;;;;;4941289;29;20187;-87
2021/05/05 03:22:37;;;;;;;5.73;2.90;;;6.90;97.30;;;;;;4941756;29;20434;-87
2021/05/05 03:25:07;;;;;;;3.97;2.70;;;6.80;97.30;;;;;;4958846;29;20801;-87
2021/05/05 03:27:32;;;;;;;7.23;3.37;;;6.80;97.30;;;;;;4941247;29;20482;-88
2021/05/05 03:29:58;;;;;;;6.00;3.33;;;6.80;97.30;;;;;;4941536;29;20419;-88
2021/05/05 03:32:23;;;;;;;7.10;3.50;;;6.80;97.30;;;;;;4941410;29;20247;-87
2021/05/05 03:34:49;;;;;;;6.60;3.47;;;6.80;97.30;;;;;;4940982;29;20598;-87
2021/05/05 03:37:15;;;;;;;8.03;3.20;;;6.80;97.30;;;;;;4957157;28;20705;-88
2021/05/05 03:39:40;;;;;;;9.93;3.27;;;6.80;97.30;;;;;;4941358;29;20229;-88
2021/05/05 03:42:06;;;;;;;5.43;3.47;;;6.80;97.30;;;;;;4941354;29;20429;-87
2021/05/05 03:44:32;;;;;;;8.70;3.63;;;6.90;97.30;;;;;;4941340;29;20189;-87
2021/05/05 03:46:57;;;;;;;12.17;3.70;;;6.90;97.30;;;;;;4957738;28;20234;-88
2021/05/05 03:49:23;;;;;;;4.73;3.23;;;6.90;97.30;;;;;;4940295;29;20187;-87
2021/05/05 03:51:48;;;;;;;5.07;2.90;;;6.90;97.30;;;;;;4940048;29;20183;-87
2021/05/05 03:54:15;;;;;;;3.87;2.70;;;7.00;97.30;;;;;;4942016;29;20704;-88
2021/05/05 03:56:41;;;;;;;7.67;2.93;;;7.00;97.30;;;;;;4957050;28;20191;-87
2021/05/05 03:59:06;;;;;;;6.73;2.80;;;7.10;97.30;;;;;;4940441;29;20477;-87
2021/05/05 04:01:32;;;;;;;3.90;2.63;;;7.10;97.30;;;;;;4955966;29;20179;-87
2021/05/05 04:03:57;;;;;;;4.60;2.90;;;7.20;97.30;;;;;;4940025;29;20183;-88
2021/05/05 04:06:23;;;;;;;9.40;3.33;;;7.20;97.30;;;;;;4939793;29;20175;-88
2021/05/05 04:08:49;;;;;;;5.40;2.50;;;7.30;97.30;;;;;;4957047;28;20195;-87
2021/05/05 04:11:15;;;;;;;8.03;2.63;;;7.30;97.30;;;;;;4939741;29;20555;-87
2021/05/05 04:13:40;;;;;;;9.13;3.40;;;7.30;97.30;;;;;;4939726;29;20179;-88
2021/05/05 04:16:06;;;;;;;5.07;2.80;;;7.30;97.30;;;;;;4956522;29;20462;-87
2021/05/05 04:18:31;;;;;;;3.90;2.90;;;7.30;97.30;;;;;;4939627;29;20255;-88
2021/05/05 04:21:02;;;;;;;8.43;2.93;;;7.30;97.30;;;;;;4940324;29;20202;-87
2021/05/05 04:23:27;;;;;;;6.33;2.90;;;7.20;97.30;;;;;;4939092;29;20223;-88
2021/05/05 04:25:53;;;;;;;4.40;2.83;;;7.20;97.30;;;;;;4939137;29;20414;-87
2021/05/05 04:28:19;;;;;;;5.47;3.23;;;7.20;97.30;;;;;;4938374;29;20197;-87
2021/05/05 04:30:45;;;;;;;4.37;2.80;;;7.20;97.30;;;;;;4938474;29;20423;-88
2021/05/05 04:33:11;;;;;;;4.27;2.70;;;7.30;97.30;;;;;;4938375;29;20603;-87
2021/05/05 04:35:36;;;;;;;5.70;2.87;;;7.30;97.30;;;;;;4938250;29;20210;-87
2021/05/05 04:38:02;;;;;;;9.53;3.50;;;7.30;97.30;;;;;;4938058;29;20245;-88
2021/05/05 04:40:27;;;;;;;4.50;2.90;;;7.30;97.30;;;;;;4938436;29;20218;-87
2021/05/05 04:42:53;;;;;;;6.37;3.27;;;7.40;97.30;;;;;;4938289;29;20257;-87
2021/05/05 04:45:18;;;;;;;5.73;3.37;;;7.40;97.30;;;;;;4938406;29;20254;-88
2021/05/05 04:47:44;;;;;;;6.87;3.60;;;7.40;97.30;;;;;;4938156;29;20251;-88
2021/05/05 04:50:11;;;;;;;8.97;3.63;;;7.40;97.30;;;;;;4938236;29;20191;-87
2021/05/05 04:52:37;;;;;;;5.10;3.30;;;7.50;97.30;;;;;;4955362;29;20646;-88
2021/05/05 04:55:05;;;;;;;4.77;3.23;;;7.50;97.30;;;;;;4938193;29;20462;-87
2021/05/05 04:57:30;;;;;;;9.03;3.33;;;7.50;97.30;;;;;;4955267;28;20892;-87
2021/05/05 04:59:56;;;;;;;6.47;3.40;;;7.50;97.30;;;;;;4938603;29;20439;-89
2021/05/05 05:02:22;;;;;;;10.10;3.03;;;7.50;97.30;;;;;;4937856;29;20947;-88
2021/05/05 05:04:47;;;;;;;5.83;3.17;;;7.60;97.30;;;;;;4955757;29;20172;-87
2021/05/05 05:07:13;;;;;;;5.63;2.80;;;7.60;97.30;;;;;;4937904;29;20294;-88
2021/05/05 05:09:38;;;;;;;7.17;3.17;;;7.70;97.30;;;;;;4937697;29;20186;-88
2021/05/05 05:12:04;;;;;;;3.90;2.90;;;7.70;97.30;;;;;;4938606;29;20179;-88
2021/05/05 05:14:30;;;;;;;6.03;3.00;;;7.90;97.30;;;;;;4954953;29;20203;-88
2021/05/05 05:19:30;;;;;;;3.57;2.60;;;8.30;97.30;;;;;;4950899;29;20227;-74
2021/05/05 05:21:55;;;;;;;6.00;2.73;;;8.60;97.30;;;;;;4936093;29;20433;-70
2021/05/05 05:24:21;;;;;;;6.13;2.73;;;8.80;97.30;;;;;;4953170;28;20175;-73
2021/05/05 05:26:46;;;;;;;6.53;3.00;;;8.90;97.30;;;;;;4935329;29;20205;-73
2021/05/05 05:29:12;;;;;;;11.23;2.93;;;9.00;97.30;;;;;;4952869;29;20179;-73
2021/05/05 05:31:37;;;;;;;3.57;3.00;;;9.10;97.30;;;;;;4936052;29;20696;-72
2021/05/05 05:34:03;;;;;;;8.20;2.83;;;9.10;97.30;;;;;;4935647;29;20179;-69
2021/05/05 05:36:29;;;;;;;3.47;2.70;;;9.20;97.30;;;;;;4935686;29;20179;-72
2021/05/05 05:38:54;;;;;;;3.53;2.73;;;9.20;97.30;;;;;;4935591;29;20199;-72
2021/05/05 05:41:20;;;;;;;6.07;2.83;;;9.20;97.30;;;;;;4936051;29;20195;-73
2021/05/05 05:43:46;;;;;;;3.90;2.77;;;9.20;97.30;;;;;;4952428;29;20172;-70
2021/05/05 05:46:11;;;;;;;3.97;2.40;;;9.30;97.30;;;;;;4935252;29;20198;-70
2021/05/05 05:48:37;;;;;;;4.10;2.50;;;9.30;97.30;;;;;;4936114;29;20561;-69
2021/05/05 05:51:03;;;;;;;7.30;2.57;;;9.30;97.00;;;;;;4935097;29;20330;-73
2021/05/05 05:53:29;;;;;;;7.37;3.80;;;9.40;97.20;;;;;;4935752;29;20679;-73
2021/05/05 05:55:54;;;;;;;11.30;4.97;;;9.50;97.30;;;;;;4952970;29;20493;-73
2021/05/05 05:58:20;;;;;;;5.80;2.97;;;9.60;97.30;;;;;;4950094;23;20264;-77
2021/05/05 06:00:46;;;;;;;7.30;3.27;;;9.70;97.30;;;;;;4936473;29;20296;-78
2021/05/05 06:03:11;;;;;;;10.10;3.60;;;9.80;97.30;;;;;;4954413;29;20650;-77
2021/05/05 06:05:37;;;;;;;6.17;2.73;;;9.90;97.30;;;;;;4937610;29;20183;-77
2021/05/05 06:08:04;;;;;;;5.30;2.60;;;9.90;96.00;;;;;;4936903;29;20184;-77
2021/05/05 06:10:30;;;;;;;5.90;2.73;;;9.80;94.70;;;;;;4935857;29;20189;-78
2021/05/05 06:12:55;;;;;;;4.83;3.03;;;9.70;94.70;;;;;;4936303;29;20486;-76
2021/05/05 06:15:21;;;;;;;4.00;2.80;;;9.70;95.50;;;;;;4935546;29;20601;-76
2021/05/05 06:17:47;;;;;;;6.93;3.83;;;9.60;95.80;;;;;;4936399;29;20251;-76
2021/05/05 06:20:13;;;;;;;7.33;2.90;;;9.60;95.90;;;;;;4936795;29;20189;-76
2021/05/05 06:22:39;;;;;;;6.77;2.80;;;9.60;95.90;;;;;;4939015;29;20419;-76
2021/05/05 06:25:07;;;;;;;6.77;3.37;;;9.70;96.00;;;;;;4939406;29;20414;-77
2021/05/05 06:27:34;;;;;;;5.03;2.50;;;9.60;94.30;;;;;;4939676;29;20190;-76
2021/05/05 06:30:00;;;;;;;6.60;3.47;;;9.50;94.50;;;;;;4939314;29;20411;-76
2021/05/05 06:32:25;;;;;;;4.60;3.03;;;9.60;93.70;;;;;;4940357;29;20449;-75
2021/05/05 06:34:52;;;;;;;9.23;3.00;;;9.60;92.10;;;;;;4939885;29;20454;-77
2021/05/05 06:37:18;;;;;;;4.83;2.73;;;9.50;92.40;;;;;;4939123;29;20186;-75
2021/05/05 06:39:44;;;;;;;8.73;3.27;;;9.60;92.80;;;;;;4939095;29;20422;-76
2021/05/05 06:42:10;;;;;;;6.70;3.30;;;9.50;93.60;;;;;;4939097;29;20196;-77
2021/05/05 06:44:35;;;;;;;4.80;3.20;;;9.40;92.60;;;;;;4938761;29;20268;-76
2021/05/05 06:47:01;;;;;;;6.60;3.20;;;9.30;93.00;;;;;;4939211;29;20426;-76
2021/05/05 06:49:29;;;;;;;6.30;3.23;;;9.40;92.80;;;;;;4938657;29;20246;-77
2021/05/05 06:51:54;;;;;;;8.13;2.97;;;9.50;92.30;;;;;;4938357;29;20235;-76
2021/05/05 06:54:20;;;;;;;8.87;2.97;;;9.70;91.30;;;;;;4938961;29;20540;-76
2021/05/05 06:56:46;;;;;;;3.87;2.30;;;9.70;90.70;;;;;;4938358;29;20415;-77
2021/05/05 06:59:13;;;;;;;11.03;2.67;;;9.70;89.70;;;;;;4938185;29;20219;-76
2021/05/05 07:01:40;;;;;;;12.00;4.07;;;9.80;89.80;;;;;;4938995;29;20443;-76
2021/05/05 07:04:10;;;;;;;4.77;3.00;;;9.90;90.20;;;;;;4938100;29;20940;-76
2021/05/05 07:06:37;;;;;;;5.53;2.90;;;10.00;89.70;;;;;;4938481;29;20504;-76
2021/05/05 07:09:07;;;;;;;8.40;2.80;;;10.00;88.70;;;;;;4938674;29;20537;-75
2021/05/05 07:11:36;;;;;;;4.33;2.57;;;10.10;87.70;;;;;;4938164;29;20443;-75
2021/05/05 07:14:03;;;;;;;5.67;2.60;;;10.20;87.00;;;;;;4938787;29;20934;-76
2021/05/05 07:16:28;;;;;;;4.97;2.37;;;10.30;85.90;;;;;;4955212;29;20415;-77
2021/05/05 07:18:54;;;;;;;6.20;2.77;;;10.30;86.20;;;;;;4938407;29;20583;-75
2021/05/05 07:21:19;;;;;;;7.10;2.63;;;10.40;86.10;;;;;;4938503;29;20229;-76
2021/05/05 07:23:45;;;;;;;3.60;2.60;;;10.40;85.20;;;;;;4955432;29;20183;-76
2021/05/05 07:26:11;;;;;;;5.67;2.97;;;10.50;86.20;;;;;;4938629;29;20203;-76
2021/05/05 07:28:38;;;;;;;5.83;2.97;;;10.60;85.40;;;;;;4938538;29;20191;-76
2021/05/05 07:31:04;;;;;;;4.33;2.63;;;10.60;84.70;;;;;;4938024;28;20474;-76
2021/05/05 07:33:30;;;;;;;7.93;2.73;;;10.70;85.20;;;;;;4937771;29;20415;-77
2021/05/05 07:35:57;;;;;;;3.67;2.50;;;10.70;85.20;;;;;;4938118;29;20455;-78
2021/05/05 07:44:28;;;;;;;5.23;3.10;;;10.80;84.20;;;;;;4955296;29;20498;-77
2021/05/05 07:46:48;;;;;;;4.53;2.90;;;10.90;84.90;;;;;;4955444;29;20423;-76
2021/05/05 07:49:18;;;;;;;6.23;3.03;;;11.10;84.90;;;;;;4938196;29;20442;-78
2021/05/05 07:51:44;;;;;;;4.50;2.50;;;11.20;83.60;;;;;;4937704;29;20490;-76
2021/05/05 07:54:11;;;;;;;5.00;2.53;;;11.20;83.60;;;;;;4938395;29;20945;-76
2021/05/05 07:56:37;;;;;;;4.10;2.70;;;11.30;83.60;;;;;;4937797;29;20426;-76
2021/05/05 07:59:03;;;;;;;4.57;2.90;;;11.40;82.90;;;;;;4937660;29;20462;-76
2021/05/05 08:01:30;;;;;;;6.90;3.00;;;11.50;83.10;;;;;;4937864;29;20200;-76
2021/05/05 08:03:56;;;;;;;5.30;3.13;;;11.30;81.90;;;;;;4936893;29;20454;-76
2021/05/05 08:06:22;;;;;;;5.77;2.77;;;11.00;82.90;;;;;;4937506;29;20447;-75
2021/05/05 08:08:47;;;;;;;3.57;2.70;;;10.90;83.40;;;;;;4938050;29;20430;-75
2021/05/05 08:11:13;;;;;;;3.87;3.10;;;10.80;82.80;;;;;;4937189;29;20571;-75
2021/05/05 08:13:39;;;;;;;4.97;2.90;;;10.80;84.40;;;;;;4937501;29;20198;-76
2021/05/05 08:16:06;;;;;;;7.00;2.90;;;10.80;84.30;;;;;;4937814;29;20334;-76
2021/05/05 08:18:32;;;;;;;7.73;2.90;;;11.00;83.60;;;;;;4954691;29;20418;-76
2021/05/05 08:21:01;;;;;;;6.13;2.80;;;11.40;84.10;;;;;;4937815;29;20435;-75
2021/05/05 08:23:27;;;;;;;4.60;2.90;;;11.50;82.30;;;;;;4954771;29;20721;-74
2021/05/05 08:25:52;;;;;;;10.30;2.80;;;11.60;82.80;;;;;;4936980;29;20425;-75
2021/05/05 08:28:18;;;;;;;5.60;2.63;;;11.50;83.30;;;;;;4937347;29;20862;-75
2021/05/05 08:30:44;;;;;;;5.20;2.30;;;11.50;83.50;;;;;;4936844;29;20642;-74
2021/05/05 08:33:10;;;;;;;5.57;2.47;;;11.50;80.80;;;;;;4937178;29;20238;-74
2021/05/05 08:35:37;;;;;;;5.20;2.43;;;11.60;79.40;;;;;;4937208;29;20738;-74
2021/05/05 08:38:03;;;;;;;6.20;2.77;;;11.60;79.70;;;;;;4953721;29;20855;-75
2021/05/05 08:40:28;;;;;;;5.03;2.87;;;11.60;79.50;;;;;;4936474;29;20411;-76
2021/05/05 08:42:54;;;;;;;6.63;2.50;;;11.60;80.70;;;;;;4937051;28;20482;-74
2021/05/05 08:45:25;;;;;;;3.87;2.37;;;11.80;80.20;;;;;;4952078;29;20207;-76
2021/05/05 08:47:53;;;;;;;5.30;2.43;;;11.90;80.20;;;;;;4937215;29;20183;-76
2021/05/05 08:50:22;;;;;;;6.07;3.53;;;12.00;79.60;;;;;;4938067;29;20427;-74
2021/05/05 08:52:48;;;;;;;3.17;2.33;;;11.90;78.20;;;;;;4954218;29;20429;-75
2021/05/05 08:55:18;;;;;;;3.30;2.00;;;12.00;78.10;;;;;;4936864;29;20446;-76
2021/05/05 08:57:44;;;;;;;4.70;2.27;;;11.80;77.30;;;;;;4953649;29;20172;-76
2021/05/05 09:00:13;;;;;;;2.53;2.10;;;11.80;76.80;;;;;;4936431;29;20458;-76
2021/05/05 09:02:40;;;;;;;4.70;2.30;;;11.70;77.00;;;;;;4936897;29;20435;-74
2021/05/05 09:05:10;;;;;;;4.17;2.20;;;11.60;77.40;;;;;;4953423;29;20419;-76
2021/05/05 09:07:37;;;;;;;2.30;1.80;;;11.80;78.90;;;;;;4936300;29;20425;-76
2021/05/05 09:10:09;;;;;;;5.43;2.27;;;11.90;78.40;;;;;;4936550;29;20531;-75
2021/05/05 09:12:40;;;;;;;3.40;2.13;;;11.90;78.80;;;;;;4936465;29;20443;-75
2021/05/05 09:15:07;;;;;;;4.47;2.60;;;12.10;78.70;;;;;;4936374;29;20470;-76
2021/05/05 09:17:33;;;;;;;3.80;2.60;;;12.10;78.40;;;;;;4936604;29;20525;-77
2021/05/05 09:20:22;;;;;;;4.00;2.90;;;12.10;79.20;;;;;;4935876;29;20906;-76
2021/05/05 09:22:55;;;;;;;6.13;2.53;;;12.10;78.60;;;;;;4936848;29;20186;-77
2021/05/05 09:25:38;;;;;;;6.77;2.50;;;12.20;78.20;;;;;;4936164;29;20875;-77
2021/05/05 09:28:16;;;;;;;5.70;3.13;;;12.20;78.60;;;;;;4936087;29;20510;-80
2021/05/05 09:30:48;;;;;;;6.53;2.40;;;12.30;77.70;;;;;;4936605;29;20449;-77
2021/05/05 09:33:30;;;;;;;6.23;2.87;;;12.50;77.70;;;;;;4936169;29;20441;-75
2021/05/05 09:35:58;;;;;;;5.27;2.17;;;12.80;77.60;;;;;;4936405;29;20521;-77
2021/05/05 09:38:45;;;;;;;3.90;2.47;;;12.70;76.00;;;;;;4953475;29;20510;-79
2021/05/05 09:41:19;;;;;;;8.93;2.60;;;12.60;76.70;;;;;;4935922;29;20430;-77
2021/05/05 09:43:45;;;;;;;6.40;2.73;;;12.70;75.80;;;;;;4936282;29;20427;-78
2021/05/05 09:46:44;;;;;;;4.60;2.53;;;12.80;75.50;;;;;;4936004;29;20419;-77
2021/05/05 09:49:25;;;;;;;5.80;2.40;;;12.50;75.40;;;;;;4916944;29;20271;-76
2021/05/05 09:51:56;;;;;;;7.17;2.47;;;12.30;76.00;;;;;;4917265;29;20467;-78
2021/05/05 09:54:25;;;;;;;4.67;2.10;;;12.30;77.30;;;;;;4916866;29;20459;-75
2021/05/05 09:56:51;;;;;;;5.00;2.10;;;12.50;76.00;;;;;;4938270;29;20415;-78
2021/05/05 09:59:17;;;;;;;8.93;2.70;;;12.20;76.00;;;;;;4921115;29;20466;-76
2021/05/05 10:01:59;;;;;;;5.50;2.60;;;12.10;74.80;;;;;;4920572;29;20444;-77
2021/05/05 10:04:25;;;;;;;6.70;2.80;;;11.80;75.50;;;;;;4938457;29;20573;-76
2021/05/05 10:06:55;;;;;;;3.60;2.27;;;11.70;76.20;;;;;;4938033;29;20411;-77
2021/05/05 10:09:23;;;;;;;3.40;2.43;;;11.70;77.00;;;;;;4920801;29;20404;-76
2021/05/05 10:11:49;;;;;;;2.87;2.10;;;12.00;76.60;;;;;;4938130;29;20444;-77
2021/05/05 10:14:16;;;;;;;4.37;2.10;;;12.00;76.30;;;;;;4920365;29;20496;-75
2021/05/05 10:16:45;;;;;;;3.33;2.03;;;11.90;75.40;;;;;;4920437;29;20546;-78
2021/05/05 10:19:22;;;;;;;3.27;2.27;;;11.70;76.10;;;;;;4920919;29;20895;-76
2021/05/05 10:22:01;;;;;;;4.83;2.20;;;11.80;76.00;;;;;;4919999;29;20494;-77
2021/05/05 10:24:30;;;;;;;5.77;2.13;;;12.00;76.20;;;;;;4920359;29;20424;-76
2021/05/05 10:26:56;;;;;;;4.37;2.13;;;12.30;76.90;;;;;;4920171;29;20424;-76
2021/05/05 10:29:22;;;;;;;6.17;2.53;;;12.80;75.50;;;;;;4919800;29;20419;-77
2021/05/05 10:32:00;;;;;;;2.40;2.10;;;12.90;74.60;;;;;;4920103;29;20439;-75
2021/05/05 10:34:28;;;;;;;2.70;1.80;;;12.50;74.20;;;;;;4920056;29;20572;-76
2021/05/05 10:36:56;;;;;;;3.30;1.80;;;12.50;74.90;;;;;;4919439;29;20427;-77
2021/05/05 10:39:22;;;;;;;5.73;2.23;;;12.40;75.00;;;;;;4923927;29;20790;-74
2021/05/05 10:42:02;;;;;;;3.30;1.97;;;12.10;73.50;;;;;;4954957;29;20431;-75
2021/05/05 10:44:35;;;;;;;3.80;1.93;;;11.90;74.40;;;;;;4954214;29;20414;-75
2021/05/05 10:47:13;;;;;;;2.83;2.00;;;12.00;74.50;;;;;;4936009;29;20925;-76
2021/05/05 10:50:07;;;;;;;4.60;2.10;;;12.20;75.30;;;;;;4935719;29;20513;-76
2021/05/05 10:52:41;;;;;;;5.23;2.10;;;12.40;74.30;;;;;;4937746;29;20486;-76
2021/05/05 10:55:09;;;;;;;2.20;1.70;;;12.20;74.20;;;;;;4937422;29;20485;-74
2021/05/05 10:57:36;;;;;;;4.90;1.90;;;12.00;74.70;;;;;;4935145;29;20446;-75
2021/05/05 11:00:09;;;;;;;3.20;1.80;;;12.30;73.70;;;;;;4954854;29;20887;-76
2021/05/05 11:02:46;;;;;;;3.00;2.03;;;12.70;73.70;;;;;;4935090;29;20974;-76
2021/05/05 11:29:28;;;;;;;6.10;2.70;;;12.20;80.80;;;;;;4954513;29;20852;-77
2021/05/05 11:31:54;;;;;;;4.67;3.00;;;11.40;85.30;;;;;;4955607;29;20434;-76
2021/05/05 11:34:19;;;;;;;4.93;2.60;;;11.10;86.40;;;;;;4938521;29;20510;-76
2021/05/05 11:36:57;;;;;;;4.03;3.10;;;10.90;86.60;;;;;;4938052;29;20183;-76
2021/05/05 11:39:24;;;;;;;5.23;3.30;;;10.90;88.50;;;;;;4955180;29;20596;-76
2021/05/05 11:41:53;;;;;;;3.23;2.60;;;10.90;89.40;;;;;;4938369;29;20958;-76
2021/05/05 11:44:40;;;;;;;4.47;3.03;;;11.40;87.70;;;;;;4955140;29;20447;-77
2021/05/05 11:47:17;;;;;;;3.80;2.40;;;11.90;85.40;;;;;;4938382;29;20430;-75
2021/05/05 11:49:44;;;;;;;7.53;2.40;;;12.20;85.10;;;;;;4937687;29;20433;-76
2021/05/05 11:52:23;;;;;;;5.23;3.03;;;12.00;83.90;;;;;;4937636;29;20443;-77
2021/05/05 11:54:51;;;;;;;3.73;3.30;;;11.50;84.80;;;;;;4937248;29;20450;-77
2021/05/05 11:57:17;;;;;;;3.83;2.27;;;11.50;85.70;;;;;;4954108;29;20548;-75
2021/05/05 11:59:43;;;;;;;3.50;2.40;;;11.40;84.50;;;;;;4953979;23;20515;-77
2021/05/05 12:02:09;;;;;;;3.50;2.20;;;11.50;84.80;;;;;;4918012;29;20966;-79
2021/05/05 12:04:39;;;;;;;4.40;1.80;;;11.60;84.20;;;;;;4918597;29;20607;-77
2021/05/05 12:07:07;;;;;;;1.83;1.80;;;11.40;82.40;;;;;;4918705;29;20262;-77
2021/05/05 12:09:38;;;;;;;6.60;2.20;;;11.40;82.20;;;;;;4918317;29;20838;-78
2021/05/05 12:12:11;;;;;;;1.40;1.30;;;11.40;80.90;;;;;;4936075;29;20475;-78
2021/05/05 12:14:38;;;;;;;2.43;1.30;;;11.40;80.40;;;;;;4918510;29;20474;-77
2021/05/05 12:17:30;;;;;;;2.80;1.60;;;11.30;80.00;;;;;;4918224;29;20412;-79
2021/05/05 12:20:06;;;;;;;2.70;1.80;;;11.30;80.30;;;;;;4918842;29;20468;-79
2021/05/05 12:22:34;;;;;;;6.50;1.70;;;11.30;79.50;;;;;;4918181;29;20444;-80
2021/05/05 12:25:07;;;;;;;3.00;1.80;;;11.50;80.40;;;;;;4918785;29;20423;-78
2021/05/05 12:27:33;;;;;;;6.00;2.40;;;11.70;79.60;;;;;;4918438;29;20470;-78
2021/05/05 12:30:00;;;;;;;3.23;2.00;;;11.80;80.10;;;;;;4917874;29;20498;-79
2021/05/05 12:32:50;;;;;;;3.37;2.20;;;11.80;80.30;;;;;;4918077;29;20239;-76
2021/05/05 12:35:24;;;;;;;3.37;2.00;;;11.90;80.40;;;;;;4925036;29;20460;-76
2021/05/05 12:37:51;;;;;;;4.53;1.87;;;11.90;80.50;;;;;;4917654;29;20416;-76
2021/05/05 12:40:17;;;;;;;5.17;1.27;;;11.60;81.80;;;;;;4918210;29;20479;-78
2021/05/05 12:42:43;;;;;;;1.70;1.40;;;10.60;88.00;;;;;;4917411;29;20412;-75
2021/05/05 12:45:14;;;;;;;1.33;1.30;;;9.40;92.70;;;;;;4934919;29;20412;-75
2021/05/05 12:47:41;;;;;;;1.40;1.30;;;8.70;95.60;;;;;;4945491;29;20949;-77
2021/05/05 12:50:08;;;;;;;1.60;1.20;;;8.50;97.30;;;;;;4935999;29;20427;-76
2021/05/05 12:52:37;;;;;;;1.40;1.30;;;8.40;97.30;;;;;;4936622;29;20828;-76
2021/05/05 12:55:23;;;;;;;1.37;1.27;;;8.30;97.30;;;;;;4937002;29;20467;-75
2021/05/05 12:58:02;;;;;;;4.60;1.50;;;8.40;97.30;;;;;;4936597;29;20473;-77
2021/05/05 13:00:28;;;;;;;1.63;1.40;;;8.40;97.30;;;;;;4936408;29;20466;-75
2021/05/05 13:03:08;;;;;;;1.93;1.40;;;8.40;97.30;;;;;;4935998;29;20961;-76
2021/05/05 13:06:06;;;;;;;1.90;1.70;;;8.50;97.30;;;;;;4936403;29;20565;-74
2021/05/05 13:11:33;;;;;;;1.60;1.50;;;8.80;95.20;;;;;;4952747;29;20444;-76
2021/05/05 13:14:06;;;;;;;1.40;1.40;;;8.90;94.20;;;;;;4936173;29;20430;-77
2021/05/05 13:16:52;;;;;;;1.53;1.47;;;9.10;94.30;;;;;;4935752;29;20949;-75
2021/05/05 13:19:59;;;;;;;1.87;1.73;;;9.10;93.30;;;;;;4936006;29;21004;-76
2021/05/05 13:25:55;;;;;;;1.80;1.70;;;9.20;92.70;;;;;;4953283;29;20426;-76
2021/05/05 13:31:13;;;;;;;2.30;1.83;;;10.10;91.00;;;;;;4952199;28;20972;-76
2021/05/05 13:33:39;;;;;;;2.40;2.10;;;10.30;89.90;;;;;;4936254;29;20425;-77
2021/05/05 13:36:04;;;;;;;2.63;2.50;;;10.60;90.80;;;;;;4935929;29;20458;-78
2021/05/05 13:38:33;;;;;;;4.60;2.17;;;10.80;88.40;;;;;;4935264;29;20651;-79
2021/05/05 13:41:02;;;;;;;2.33;2.20;;;10.70;87.90;;;;;;4936412;29;20195;-76
2021/05/05 13:43:46;;;;;;;2.80;2.57;;;10.80;87.80;;;;;;4935596;29;20422;-77
2021/05/05 13:48:57;;;;;;;3.60;2.13;;;11.30;87.30;;;;;;4915426;29;20440;-76
2021/05/05 13:51:23;;;;;;;4.93;2.23;;;11.10;87.00;;;;;;4913180;29;20432;-77
2021/05/05 13:53:51;;;;;;;2.30;2.10;;;11.50;87.90;;;;;;4914115;29;20428;-77
2021/05/05 13:56:19;;;;;;;2.90;2.47;;;12.30;86.20;;;;;;4914128;29;20631;-77
2021/05/05 13:58:46;;;;;;;3.50;2.23;;;12.70;83.50;;;;;;4922367;29;20416;-76
2021/05/05 14:01:11;;;;;;;2.30;1.80;;;12.80;82.90;;;;;;4924870;29;20454;-77
2021/05/05 14:03:40;;;;;;;3.20;2.23;;;12.50;82.80;;;;;;4926185;29;20425;-77